This is the latest recevied weather packets stored in our database for station/object KF6ILA. If no packets are shown the sender has not sent any weather packets the latest 1 day(s).
| Time | Temp. | Humidity | Pressure | Rain* | Wind** | Luminosity | Snow |
|---|---|---|---|---|---|---|---|
| 1778004300 | 5° C | 100% | 1011.6 hPa | 0.76 mm | 6.71 m/s, 276° | 179 W/m² | - |
| 1778004003 | 5° C | 100% | 1011.3 hPa | 0.76 mm | 7.6 m/s, 266° | 243 W/m² | - |
| 1778003706 | 5° C | 100% | 1011.4 hPa | 1.02 mm | 7.15 m/s, 269° | 221 W/m² | - |
| 1778003409 | 5° C | 100% | 1011.4 hPa | 1.02 mm | 7.15 m/s, 278° | 265 W/m² | - |
| 1778003112 | 5.56° C | 100% | 1011.3 hPa | 1.02 mm | 7.6 m/s, 276° | 193 W/m² | - |
| 1778002815 | 5.56° C | 100% | 1011 hPa | 0.76 mm | 7.6 m/s, 269° | 195 W/m² | - |
| 1778002519 | 5.56° C | 100% | 1010.9 hPa | 0.76 mm | 5.36 m/s, 274° | 216 W/m² | - |
| 1778002221 | 5.56° C | 100% | 1010.7 hPa | 1.02 mm | 8.94 m/s, 259° | 424 W/m² | - |
| 1778001924 | 5.56° C | 100% | 1010.6 hPa | 1.02 mm | 7.6 m/s, 257° | 381 W/m² | - |
| 1778001627 | 5.56° C | 100% | 1010.6 hPa | 0.76 mm | 8.94 m/s, 273° | 278 W/m² | - |
| 1778001331 | 5.56° C | 100% | 1010.7 hPa | 0.76 mm | 10.73 m/s, 257° | 313 W/m² | - |
| 1778001033 | 5.56° C | 100% | 1010.7 hPa | 0.76 mm | 7.15 m/s, 265° | 265 W/m² | - |
| 1778000736 | 6.11° C | 100% | 1010.7 hPa | 0.76 mm | 7.6 m/s, 272° | 269 W/m² | - |
| 1778000439 | 6.11° C | 100% | 1010.6 hPa | 0.76 mm | 7.15 m/s, 270° | 267 W/m² | - |
| 1778000143 | 6.11° C | 100% | 1010.6 hPa | 0.51 mm | 6.71 m/s, 258° | 413 W/m² | - |
| 1777999845 | 6.11° C | 100% | 1010.3 hPa | 0.51 mm | 7.15 m/s, 255° | 355 W/m² | - |
| 1777999548 | 5.56° C | 100% | 1010.4 hPa | 0.51 mm | 5.81 m/s, 269° | 167 W/m² | - |
| 1777999251 | 5.56° C | 100% | 1010.5 hPa | 0.76 mm | 5.81 m/s, 267° | 144 W/m² | - |
| 1777998954 | 5.56° C | 100% | 1010.4 hPa | 0.76 mm | 5.81 m/s, 270° | 142 W/m² | - |
| 1777998709 | 5.56° C | 100% | 1010.4 hPa | 0.76 mm | 5.81 m/s, 269° | 155 W/m² | - |
| 1777998657 | 5.56° C | 100% | 1010.4 hPa | 0.76 mm | 5.81 m/s, 269° | 155 W/m² | - |
| 1777998396 | 5.56° C | 100% | 1010.3 hPa | 0.76 mm | 7.15 m/s, 274° | 216 W/m² | - |
| 1777998361 | 5.56° C | 100% | 1010.3 hPa | 0.76 mm | 7.15 m/s, 274° | 216 W/m² | - |
| 1777998063 | 5.56° C | 100% | 1010.2 hPa | 0.76 mm | 6.26 m/s, 271° | 287 W/m² | - |
| 1777997766 | 5.56° C | 100% | 1010.2 hPa | 0.76 mm | 5.36 m/s, 285° | 239 W/m² | - |
* Rain latest hour (hover to see other rain measurements)
** Current wind speed in m/s (hover to see current wind gust speed)